sensor_id;sensor_type;location;lat;lon;timestamp;pressure;altitude;pressure_sealevel;temperature;humidity
70240;BME280;57629;52.256;10.414;2024-03-02T00:00:56;99731.34;;;18.13;46.76
70240;BME280;57629;52.256;10.414;2024-03-02T00:01:59;99741.72;;;18.15;46.91
70240;BME280;57629;52.256;10.414;2024-03-02T00:02:59;99742.81;;;18.14;46.85
70240;BME280;57629;52.256;10.414;2024-03-02T00:04:00;99737.50;;;18.14;46.79
70240;BME280;57629;52.256;10.414;2024-03-02T00:05:04;99735.63;;;18.14;46.58
70240;BME280;57629;52.256;10.414;2024-03-02T00:06:06;99740.94;;;18.14;46.69
70240;BME280;57629;52.256;10.414;2024-03-02T00:07:08;99739.06;;;18.15;46.86
70240;BME280;57629;52.256;10.414;2024-03-02T00:08:10;99739.06;;;18.15;46.72
70240;BME280;57629;52.256;10.414;2024-03-02T00:09:11;99734.00;;;18.13;46.84
70240;BME280;57629;52.256;10.414;2024-03-02T00:10:16;99736.66;;;18.13;46.88
70240;BME280;57629;52.256;10.414;2024-03-02T00:11:22;99740.16;;;18.14;46.81
70240;BME280;57629;52.256;10.414;2024-03-02T00:12:23;99736.66;;;18.13;46.84
70240;BME280;57629;52.256;10.414;2024-03-02T00:13:24;99738.53;;;18.13;46.88
70240;BME280;57629;52.256;10.414;2024-03-02T00:14:30;99734.00;;;18.13;46.68
70240;BME280;57629;52.256;10.414;2024-03-02T00:15:51;99736.66;;;18.13;46.71
70240;BME280;57629;52.256;10.414;2024-03-02T00:16:54;99734.28;;;18.12;46.87
70240;BME280;57629;52.256;10.414;2024-03-02T00:17:56;99732.41;;;18.12;46.82
70240;BME280;57629;52.256;10.414;2024-03-02T00:19:01;99727.34;;;18.11;46.73
70240;BME280;57629;52.256;10.414;2024-03-02T00:20:03;99730.00;;;18.11;46.64
70240;BME280;57629;52.256;10.414;2024-03-02T00:21:06;99727.09;;;18.12;46.59
70240;BME280;57629;52.256;10.414;2024-03-02T00:22:08;99735.06;;;18.12;46.78
70240;BME280;57629;52.256;10.414;2024-03-02T00:23:14;99724.69;;;18.11;46.60
70240;BME280;57629;52.256;10.414;2024-03-02T00:24:32;99730.81;;;18.11;46.71
70240;BME280;57629;52.256;10.414;2024-03-02T00:25:38;99725.50;;;18.11;46.41
70240;BME280;57629;52.256;10.414;2024-03-02T00:26:39;99728.97;;;18.12;46.65
70240;BME280;57629;52.256;10.414;2024-03-02T00:27:39;99725.50;;;18.11;46.72
70240;BME280;57629;52.256;10.414;2024-03-02T00:28:40;99721.00;;;18.12;46.63
70240;BME280;57629;52.256;10.414;2024-03-02T00:29:41;99721.00;;;18.12;46.59
70240;BME280;57629;52.256;10.414;2024-03-02T00:30:51;99726.31;;;18.12;46.58
70240;BME280;57629;52.256;10.414;2024-03-02T00:31:52;99724.69;;;18.11;46.89
70240;BME280;57629;52.256;10.414;2024-03-02T00:32:53;99721.00;;;18.12;46.64
70240;BME280;57629;52.256;10.414;2024-03-02T00:33:53;99716.47;;;18.12;46.80
70240;BME280;57629;52.256;10.414;2024-03-02T00:34:54;99721.78;;;18.12;46.83
70240;BME280;57629;52.256;10.414;2024-03-02T00:35:56;99724.44;;;18.12;46.41
70240;BME280;57629;52.256;10.414;2024-03-02T00:36:58;99722.84;;;18.11;46.77
70240;BME280;57629;52.256;10.414;2024-03-02T00:38:03;99714.88;;;18.11;46.64
70240;BME280;57629;52.256;10.414;2024-03-02T00:39:06;99708.75;;;18.11;46.99
70240;BME280;57629;52.256;10.414;2024-03-02T00:40:08;99705.28;;;18.10;46.42
70240;BME280;57629;52.256;10.414;2024-03-02T00:41:16;99704.25;;;18.11;46.49
70240;BME280;57629;52.256;10.414;2024-03-02T00:42:23;99706.09;;;18.11;46.60
70240;BME280;57629;52.256;10.414;2024-03-02T00:43:45;99704.25;;;18.11;46.81
70240;BME280;57629;52.256;10.414;2024-03-02T00:44:47;99710.59;;;18.10;46.60
70240;BME280;57629;52.256;10.414;2024-03-02T00:45:48;99702.88;;;18.08;46.71
70240;BME280;57629;52.256;10.414;2024-03-02T00:46:49;99701.84;;;18.10;46.63
70240;BME280;57629;52.256;10.414;2024-03-02T00:47:50;99701.84;;;18.10;46.65
70240;BME280;57629;52.256;10.414;2024-03-02T00:48:53;99696.53;;;18.10;46.76
70240;BME280;57629;52.256;10.414;2024-03-02T00:49:54;99697.31;;;18.10;46.63
70240;BME280;57629;52.256;10.414;2024-03-02T00:50:55;99710.59;;;18.10;46.74
70240;BME280;57629;52.256;10.414;2024-03-02T00:51:56;99698.13;;;18.11;46.48
70240;BME280;57629;52.256;10.414;2024-03-02T00:52:57;99694.66;;;18.10;46.66
70240;BME280;57629;52.256;10.414;2024-03-02T00:54:00;99704.25;;;18.11;46.81
70240;BME280;57629;52.256;10.414;2024-03-02T00:55:03;99700.78;;;18.11;46.70
70240;BME280;57629;52.256;10.414;2024-03-02T00:56:06;99702.63;;;18.10;46.59
70240;BME280;57629;52.256;10.414;2024-03-02T00:57:10;99700.78;;;18.11;46.32
70240;BME280;57629;52.256;10.414;2024-03-02T00:58:12;99698.13;;;18.11;46.62
70240;BME280;57629;52.256;10.414;2024-03-02T00:59:21;99698.38;;;18.09;46.89
70240;BME280;57629;52.256;10.414;2024-03-02T01:00:22;99699.19;;;18.10;46.72
70240;BME280;57629;52.256;10.414;2024-03-02T01:01:28;99698.38;;;18.09;46.75
70240;BME280;57629;52.256;10.414;2024-03-02T01:02:30;99698.38;;;18.09;46.65
70240;BME280;57629;52.256;10.414;2024-03-02T01:03:32;99707.16;;;18.10;46.78
70240;BME280;57629;52.256;10.414;2024-03-02T01:04:33;99699.97;;;18.10;46.74
70240;BME280;57629;52.256;10.414;2024-03-02T01:05:33;99699.97;;;18.10;46.58
70240;BME280;57629;52.256;10.414;2024-03-02T01:06:34;99696.53;;;18.10;46.81
70240;BME280;57629;52.256;10.414;2024-03-02T01:07:38;99694.09;;;18.08;46.50
70240;BME280;57629;52.256;10.414;2024-03-02T01:08:41;99696.53;;;18.10;46.72
70240;BME280;57629;52.256;10.414;2024-03-02T01:09:42;99701.03;;;18.09;46.64
70240;BME280;57629;52.256;10.414;2024-03-02T01:10:44;99698.38;;;18.09;46.74
70240;BME280;57629;52.256;10.414;2024-03-02T01:11:45;99698.38;;;18.09;46.50
70240;BME280;57629;52.256;10.414;2024-03-02T01:12:46;99707.16;;;18.10;46.46
70240;BME280;57629;52.256;10.414;2024-03-02T01:13:47;99699.19;;;18.10;46.81
70240;BME280;57629;52.256;10.414;2024-03-02T01:14:48;99697.56;;;18.08;46.67
70240;BME280;57629;52.256;10.414;2024-03-02T01:15:49;99700.22;;;18.08;46.60
70240;BME280;57629;52.256;10.414;2024-03-02T01:16:49;99703.69;;;18.09;46.56
70240;BME280;57629;52.256;10.414;2024-03-02T01:17:50;99702.06;;;18.08;46.55
70240;BME280;57629;52.256;10.414;2024-03-02T01:18:51;99702.88;;;18.08;46.75
70240;BME280;57629;52.256;10.414;2024-03-02T01:19:52;99700.22;;;18.08;46.95
70240;BME280;57629;52.256;10.414;2024-03-02T01:20:53;99693.06;;;18.09;46.76
70240;BME280;57629;52.256;10.414;2024-03-02T01:21:53;99705.53;;;18.08;46.50
70240;BME280;57629;52.256;10.414;2024-03-02T01:22:54;99698.38;;;18.09;46.51
70240;BME280;57629;52.256;10.414;2024-03-02T01:23:55;99697.31;;;18.10;46.21
70240;BME280;57629;52.256;10.414;2024-03-02T01:24:56;99698.38;;;18.09;46.69
70240;BME280;57629;52.256;10.414;2024-03-02T01:25:58;99696.53;;;18.10;46.83
70240;BME280;57629;52.256;10.414;2024-03-02T01:26:59;99695.72;;;18.09;46.67
70240;BME280;57629;52.256;10.414;2024-03-02T01:28:00;99700.22;;;18.08;46.64
70240;BME280;57629;52.256;10.414;2024-03-02T01:29:01;99694.66;;;18.10;46.56
70240;BME280;57629;52.256;10.414;2024-03-02T01:30:03;99692.25;;;18.08;46.83
70240;BME280;57629;52.256;10.414;2024-03-02T01:31:04;99694.09;;;18.08;46.66
70240;BME280;57629;52.256;10.414;2024-03-02T01:32:06;99689.84;;;18.07;46.82
70240;BME280;57629;52.256;10.414;2024-03-02T01:33:07;99693.31;;;18.07;46.97
70240;BME280;57629;52.256;10.414;2024-03-02T01:34:09;99697.56;;;18.08;46.53
70240;BME280;57629;52.256;10.414;2024-03-02T01:35:16;99699.41;;;18.08;46.55
70240;BME280;57629;52.256;10.414;2024-03-02T01:36:17;99693.31;;;18.07;46.77
70240;BME280;57629;52.256;10.414;2024-03-02T01:37:24;99695.97;;;18.07;46.77
70240;BME280;57629;52.256;10.414;2024-03-02T01:38:31;99689.84;;;18.07;46.72
70240;BME280;57629;52.256;10.414;2024-03-02T01:39:32;99689.59;;;18.08;46.71
70240;BME280;57629;52.256;10.414;2024-03-02T01:40:35;99695.97;;;18.07;46.52
70240;BME280;57629;52.256;10.414;2024-03-02T01:41:38;99696.75;;;18.08;46.61
70240;BME280;57629;52.256;10.414;2024-03-02T01:42:39;99689.84;;;18.07;46.69
70240;BME280;57629;52.256;10.414;2024-03-02T01:43:43;99698.63;;;18.07;46.93
70240;BME280;57629;52.256;10.414;2024-03-02T01:44:43;99695.16;;;18.07;46.66
70240;BME280;57629;52.256;10.414;2024-03-02T01:45:44;99695.16;;;18.07;46.54
70240;BME280;57629;52.256;10.414;2024-03-02T01:46:45;99695.16;;;18.07;46.65
70240;BME280;57629;52.256;10.414;2024-03-02T01:47:46;99705.53;;;18.08;46.68
70240;BME280;57629;52.256;10.414;2024-03-02T01:48:47;99695.97;;;18.07;46.65
70240;BME280;57629;52.256;10.414;2024-03-02T01:49:48;99699.41;;;18.08;46.69
70240;BME280;57629;52.256;10.414;2024-03-02T01:50:49;99701.53;;;18.06;46.79
70240;BME280;57629;52.256;10.414;2024-03-02T01:51:50;99699.41;;;18.08;46.54
70240;BME280;57629;52.256;10.414;2024-03-02T01:52:51;99710.31;;;18.06;46.75
70240;BME280;57629;52.256;10.414;2024-03-02T01:53:53;99706.59;;;18.07;46.47
70240;BME280;57629;52.256;10.414;2024-03-02T01:54:53;99707.66;;;18.06;46.76
70240;BME280;57629;52.256;10.414;2024-03-02T01:55:54;99706.03;;;18.05;46.42
70240;BME280;57629;52.256;10.414;2024-03-02T01:56:56;99701.53;;;18.06;46.62
70240;BME280;57629;52.256;10.414;2024-03-02T01:57:57;99702.34;;;18.06;46.85
70240;BME280;57629;52.256;10.414;2024-03-02T01:58:58;99705.81;;;18.07;46.52
70240;BME280;57629;52.256;10.414;2024-03-02T01:59:59;99705.81;;;18.07;46.43
70240;BME280;57629;52.256;10.414;2024-03-02T02:01:00;99709.25;;;18.07;46.50
70240;BME280;57629;52.256;10.414;2024-03-02T02:02:02;99705.00;;;18.06;46.76
70240;BME280;57629;52.256;10.414;2024-03-02T02:03:04;99705.81;;;18.07;46.50
70240;BME280;57629;52.256;10.414;2024-03-02T02:04:06;99706.59;;;18.07;46.61
70240;BME280;57629;52.256;10.414;2024-03-02T02:05:07;99705.00;;;18.06;46.62
70240;BME280;57629;52.256;10.414;2024-03-02T02:06:08;99706.84;;;18.06;46.70
70240;BME280;57629;52.256;10.414;2024-03-02T02:07:10;99706.84;;;18.06;46.69
70240;BME280;57629;52.256;10.414;2024-03-02T02:08:14;99700.72;;;18.05;46.76
70240;BME280;57629;52.256;10.414;2024-03-02T02:09:20;99702.34;;;18.06;46.60
70240;BME280;57629;52.256;10.414;2024-03-02T02:10:28;99708.47;;;18.07;46.60
70240;BME280;57629;52.256;10.414;2024-03-02T02:11:31;99712.97;;;18.06;46.90
70240;BME280;57629;52.256;10.414;2024-03-02T02:12:33;99705.00;;;18.06;46.62
70240;BME280;57629;52.256;10.414;2024-03-02T02:13:36;99712.16;;;18.06;46.73
70240;BME280;57629;52.256;10.414;2024-03-02T02:14:37;99708.47;;;18.07;46.59
70240;BME280;57629;52.256;10.414;2024-03-02T02:15:39;99707.66;;;18.06;46.61
70240;BME280;57629;52.256;10.414;2024-03-02T02:16:40;99709.50;;;18.06;46.55
70240;BME280;57629;52.256;10.414;2024-03-02T02:17:40;99712.97;;;18.06;46.75
70240;BME280;57629;52.256;10.414;2024-03-02T02:18:41;99714.81;;;18.06;46.70
70240;BME280;57629;52.256;10.414;2024-03-02T02:19:42;99707.66;;;18.06;46.44
70240;BME280;57629;52.256;10.414;2024-03-02T02:20:43;99707.09;;;18.04;46.45
70240;BME280;57629;52.256;10.414;2024-03-02T02:21:45;99707.91;;;18.05;46.94
70240;BME280;57629;52.256;10.414;2024-03-02T02:22:58;99702.34;;;18.06;46.62
70240;BME280;57629;52.256;10.414;2024-03-02T02:23:59;99703.38;;;18.05;46.86
70240;BME280;57629;52.256;10.414;2024-03-02T02:25:00;99705.25;;;18.05;46.70
70240;BME280;57629;52.256;10.414;2024-03-02T02:26:00;99705.25;;;18.05;46.62
70240;BME280;57629;52.256;10.414;2024-03-02T02:27:01;99709.78;;;18.04;46.55
70240;BME280;57629;52.256;10.414;2024-03-02T02:28:03;99708.69;;;18.05;46.83
70240;BME280;57629;52.256;10.414;2024-03-02T02:29:04;99709.78;;;18.04;46.58
70240;BME280;57629;52.256;10.414;2024-03-02T02:30:06;99708.69;;;18.05;46.73
70240;BME280;57629;52.256;10.414;2024-03-02T02:31:08;99701.53;;;18.06;46.42
70240;BME280;57629;52.256;10.414;2024-03-02T02:32:09;99711.34;;;18.05;46.45
70240;BME280;57629;52.256;10.414;2024-03-02T02:33:10;99702.59;;;18.05;46.61
70240;BME280;57629;52.256;10.414;2024-03-02T02:34:11;99707.66;;;18.06;46.46
70240;BME280;57629;52.256;10.414;2024-03-02T02:35:20;99698.06;;;18.05;46.47
70240;BME280;57629;52.256;10.414;2024-03-02T02:36:27;99701.78;;;18.04;46.58
70240;BME280;57629;52.256;10.414;2024-03-02T02:37:29;99703.38;;;18.05;46.76
70240;BME280;57629;52.256;10.414;2024-03-02T02:38:33;99700.72;;;18.05;46.68
70240;BME280;57629;52.256;10.414;2024-03-02T02:39:36;99705.25;;;18.05;46.87
70240;BME280;57629;52.256;10.414;2024-03-02T02:40:37;99701.00;;;18.04;46.60
70240;BME280;57629;52.256;10.414;2024-03-02T02:41:38;99703.38;;;18.05;46.61
70240;BME280;57629;52.256;10.414;2024-03-02T02:42:38;99699.94;;;18.05;46.49
70240;BME280;57629;52.256;10.414;2024-03-02T02:43:39;99699.13;;;18.04;46.24
70240;BME280;57629;52.256;10.414;2024-03-02T02:44:40;99699.94;;;18.05;46.67
70240;BME280;57629;52.256;10.414;2024-03-02T02:45:41;99695.69;;;18.04;46.82
70240;BME280;57629;52.256;10.414;2024-03-02T02:46:42;99697.28;;;18.05;46.62
70240;BME280;57629;52.256;10.414;2024-03-02T02:47:43;99699.13;;;18.04;46.77
70240;BME280;57629;52.256;10.414;2024-03-02T02:48:44;99693.81;;;18.04;46.66
70240;BME280;57629;52.256;10.414;2024-03-02T02:49:45;99697.28;;;18.05;46.70
70240;BME280;57629;52.256;10.414;2024-03-02T02:50:46;99698.34;;;18.04;46.55
70240;BME280;57629;52.256;10.414;2024-03-02T02:51:47;99691.16;;;18.04;46.18
70240;BME280;57629;52.256;10.414;2024-03-02T02:52:50;99692.75;;;18.05;46.53
70240;BME280;57629;52.256;10.414;2024-03-02T02:53:50;99689.31;;;18.05;46.94
70240;BME280;57629;52.256;10.414;2024-03-02T02:54:51;99685.84;;;18.04;46.74
70240;BME280;57629;52.256;10.414;2024-03-02T02:55:52;99685.84;;;18.04;46.39
70240;BME280;57629;52.256;10.414;2024-03-02T02:56:53;99681.56;;;18.03;46.77
70240;BME280;57629;52.256;10.414;2024-03-02T02:57:54;99686.88;;;18.03;46.61
70240;BME280;57629;52.256;10.414;2024-03-02T02:58:55;99684.00;;;18.05;46.69
70240;BME280;57629;52.256;10.414;2024-03-02T02:59:56;99688.50;;;18.04;46.47
70240;BME280;57629;52.256;10.414;2024-03-02T03:00:57;99678.91;;;18.03;46.47
70240;BME280;57629;52.256;10.414;2024-03-02T03:01:58;99679.75;;;18.04;46.64
70240;BME280;57629;52.256;10.414;2024-03-02T03:02:59;99682.41;;;18.04;46.50
70240;BME280;57629;52.256;10.414;2024-03-02T03:04:00;99682.41;;;18.04;46.62
70240;BME280;57629;52.256;10.414;2024-03-02T03:05:00;99677.88;;;18.04;46.53
70240;BME280;57629;52.256;10.414;2024-03-02T03:06:02;99671.78;;;18.04;46.39
70240;BME280;57629;52.256;10.414;2024-03-02T03:07:04;99678.69;;;18.05;46.70
70240;BME280;57629;52.256;10.414;2024-03-02T03:08:06;99675.22;;;18.04;46.45
70240;BME280;57629;52.256;10.414;2024-03-02T03:09:08;99676.25;;;18.03;46.73
70240;BME280;57629;52.256;10.414;2024-03-02T03:10:13;99680.00;;;18.02;46.49
70240;BME280;57629;52.256;10.414;2024-03-02T03:11:14;99679.75;;;18.04;46.39
70240;BME280;57629;52.256;10.414;2024-03-02T03:12:21;99676.25;;;18.03;46.55
70240;BME280;57629;52.256;10.414;2024-03-02T03:13:25;99668.28;;;18.03;46.57
70240;BME280;57629;52.256;10.414;2024-03-02T03:14:29;99674.44;;;18.04;46.53
70240;BME280;57629;52.256;10.414;2024-03-02T03:15:35;99672.81;;;18.03;46.69
70240;BME280;57629;52.256;10.414;2024-03-02T03:16:37;99673.88;;;18.02;46.58
70240;BME280;57629;52.256;10.414;2024-03-02T03:17:38;99678.13;;;18.03;46.70
70240;BME280;57629;52.256;10.414;2024-03-02T03:18:39;99678.91;;;18.03;46.63
70240;BME280;57629;52.256;10.414;2024-03-02T03:19:40;99674.44;;;18.04;46.58
70240;BME280;57629;52.256;10.414;2024-03-02T03:20:40;99680.53;;;18.04;46.71
70240;BME280;57629;52.256;10.414;2024-03-02T03:21:43;99671.78;;;18.04;46.68
70240;BME280;57629;52.256;10.414;2024-03-02T03:22:46;99667.50;;;18.03;46.54
70240;BME280;57629;52.256;10.414;2024-03-02T03:23:48;99668.28;;;18.03;46.30
70240;BME280;57629;52.256;10.414;2024-03-02T03:24:49;99672.56;;;18.04;46.48
70240;BME280;57629;52.256;10.414;2024-03-02T03:25:50;99673.59;;;18.03;46.22
70240;BME280;57629;52.256;10.414;2024-03-02T03:26:50;99672.03;;;18.02;46.64
70240;BME280;57629;52.256;10.414;2024-03-02T03:27:51;99671.78;;;18.04;46.44
70240;BME280;57629;52.256;10.414;2024-03-02T03:28:52;99668.28;;;18.03;46.50
70240;BME280;57629;52.256;10.414;2024-03-02T03:29:53;99670.94;;;18.03;46.85
70240;BME280;57629;52.256;10.414;2024-03-02T03:30:54;99674.44;;;18.04;46.58
70240;BME280;57629;52.256;10.414;2024-03-02T03:31:55;99665.91;;;18.02;46.79
70240;BME280;57629;52.256;10.414;2024-03-02T03:32:55;99669.38;;;18.02;46.63
70240;BME280;57629;52.256;10.414;2024-03-02T03:33:56;99665.63;;;18.03;46.54
70240;BME280;57629;52.256;10.414;2024-03-02T03:34:57;99673.59;;;18.03;46.55
70240;BME280;57629;52.256;10.414;2024-03-02T03:35:57;99674.44;;;18.04;46.15
70240;BME280;57629;52.256;10.414;2024-03-02T03:36:58;99671.78;;;18.04;46.61
70240;BME280;57629;52.256;10.414;2024-03-02T03:37:59;99668.28;;;18.03;46.53
70240;BME280;57629;52.256;10.414;2024-03-02T03:39:02;99668.28;;;18.03;46.44
70240;BME280;57629;52.256;10.414;2024-03-02T03:40:04;99669.91;;;18.04;46.45
70240;BME280;57629;52.256;10.414;2024-03-02T03:41:05;99667.25;;;18.04;46.61
70240;BME280;57629;52.256;10.414;2024-03-02T03:42:05;99674.44;;;18.04;46.76
70240;BME280;57629;52.256;10.414;2024-03-02T03:43:08;99664.84;;;18.03;46.45
70240;BME280;57629;52.256;10.414;2024-03-02T03:44:09;99666.47;;;18.04;46.58
70240;BME280;57629;52.256;10.414;2024-03-02T03:45:11;99663.25;;;18.02;46.68
70240;BME280;57629;52.256;10.414;2024-03-02T03:46:14;99667.50;;;18.03;46.44
70240;BME280;57629;52.256;10.414;2024-03-02T03:47:22;99669.38;;;18.02;46.58
70240;BME280;57629;52.256;10.414;2024-03-02T03:48:23;99665.13;;;18.01;46.43
70240;BME280;57629;52.256;10.414;2024-03-02T03:49:30;99665.91;;;18.02;46.72
70240;BME280;57629;52.256;10.414;2024-03-02T03:50:37;99667.50;;;18.03;46.62
70240;BME280;57629;52.256;10.414;2024-03-02T03:51:38;99658.72;;;18.02;46.48
70240;BME280;57629;52.256;10.414;2024-03-02T03:52:45;99665.63;;;18.03;46.61
70240;BME280;57629;52.256;10.414;2024-03-02T03:53:46;99663.25;;;18.02;46.51
70240;BME280;57629;52.256;10.414;2024-03-02T03:54:48;99665.13;;;18.01;46.42
70240;BME280;57629;52.256;10.414;2024-03-02T03:55:48;99666.72;;;18.02;46.54
70240;BME280;57629;52.256;10.414;2024-03-02T03:56:49;99665.13;;;18.01;46.56
70240;BME280;57629;52.256;10.414;2024-03-02T03:57:51;99663.25;;;18.02;46.58
70240;BME280;57629;52.256;10.414;2024-03-02T03:58:51;99666.94;;;18.01;46.69
70240;BME280;57629;52.256;10.414;2024-03-02T03:59:52;99662.47;;;18.01;46.53
70240;BME280;57629;52.256;10.414;2024-03-02T04:00:53;99665.91;;;18.02;46.42
70240;BME280;57629;52.256;10.414;2024-03-02T04:01:55;99662.19;;;18.03;46.47
70240;BME280;57629;52.256;10.414;2024-03-02T04:02:56;99665.63;;;18.03;46.40
70240;BME280;57629;52.256;10.414;2024-03-02T04:03:57;99660.31;;;18.03;46.65
70240;BME280;57629;52.256;10.414;2024-03-02T04:04:58;99651.84;;;18.01;46.42
70240;BME280;57629;52.256;10.414;2024-03-02T04:05:59;99657.94;;;18.02;46.43
70240;BME280;57629;52.256;10.414;2024-03-02T04:07:00;99661.41;;;18.02;46.46
70240;BME280;57629;52.256;10.414;2024-03-02T04:08:01;99660.59;;;18.02;46.32
70240;BME280;57629;52.256;10.414;2024-03-02T04:09:03;99665.63;;;18.03;46.31
70240;BME280;57629;52.256;10.414;2024-03-02T04:10:07;99662.97;;;18.03;46.47
70240;BME280;57629;52.256;10.414;2024-03-02T04:11:08;99664.06;;;18.02;46.38
70240;BME280;57629;52.256;10.414;2024-03-02T04:12:08;99663.25;;;18.02;46.58
70240;BME280;57629;52.256;10.414;2024-03-02T04:13:11;99665.63;;;18.03;46.80
70240;BME280;57629;52.256;10.414;2024-03-02T04:14:18;99660.59;;;18.02;46.70
70240;BME280;57629;52.256;10.414;2024-03-02T04:15:28;99664.06;;;18.02;46.71
70240;BME280;57629;52.256;10.414;2024-03-02T04:16:29;99657.16;;;18.01;46.38
70240;BME280;57629;52.256;10.414;2024-03-02T04:17:31;99664.06;;;18.02;46.38
70240;BME280;57629;52.256;10.414;2024-03-02T04:18:33;99665.91;;;18.02;46.73
70240;BME280;57629;52.256;10.414;2024-03-02T04:19:36;99662.97;;;18.03;46.52
70240;BME280;57629;52.256;10.414;2024-03-02T04:20:38;99660.59;;;18.02;46.39
70240;BME280;57629;52.256;10.414;2024-03-02T04:21:38;99664.84;;;18.03;46.76
70240;BME280;57629;52.256;10.414;2024-03-02T04:22:40;99663.25;;;18.02;46.63
70240;BME280;57629;52.256;10.414;2024-03-02T04:23:41;99654.50;;;18.01;46.64
70240;BME280;57629;52.256;10.414;2024-03-02T04:24:42;99668.56;;;18.02;46.62
70240;BME280;57629;52.256;10.414;2024-03-02T04:25:44;99667.78;;;18.01;46.61
70240;BME280;57629;52.256;10.414;2024-03-02T04:26:45;99663.50;;;18.00;46.43
70240;BME280;57629;52.256;10.414;2024-03-02T04:27:45;99656.31;;;18.01;46.59
70240;BME280;57629;52.256;10.414;2024-03-02T04:28:46;99661.63;;;18.01;46.61
70240;BME280;57629;52.256;10.414;2024-03-02T04:29:48;99666.16;;;18.00;46.63
70240;BME280;57629;52.256;10.414;2024-03-02T04:30:48;99667.78;;;18.01;46.55
70240;BME280;57629;52.256;10.414;2024-03-02T04:31:49;99666.94;;;18.01;46.57
70240;BME280;57629;52.256;10.414;2024-03-02T04:32:50;99667.78;;;18.01;46.67
70240;BME280;57629;52.256;10.414;2024-03-02T04:33:50;99668.56;;;18.02;46.55
70240;BME280;57629;52.256;10.414;2024-03-02T04:34:51;99669.38;;;18.02;46.54
70240;BME280;57629;52.256;10.414;2024-03-02T04:35:52;99674.69;;;18.02;46.29
70240;BME280;57629;52.256;10.414;2024-03-02T04:36:53;99670.44;;;18.01;46.57
70240;BME280;57629;52.256;10.414;2024-03-02T04:37:53;99670.44;;;18.01;46.47
70240;BME280;57629;52.256;10.414;2024-03-02T04:38:54;99680.00;;;18.02;46.45
70240;BME280;57629;52.256;10.414;2024-03-02T04:39:55;99673.88;;;18.02;46.72
70240;BME280;57629;52.256;10.414;2024-03-02T04:40:57;99673.09;;;18.01;46.57
70240;BME280;57629;52.256;10.414;2024-03-02T04:41:58;99678.41;;;18.01;46.31
70240;BME280;57629;52.256;10.414;2024-03-02T04:42:59;99676.53;;;18.02;46.42
70240;BME280;57629;52.256;10.414;2024-03-02T04:44:00;99677.56;;;18.01;46.63
70240;BME280;57629;52.256;10.414;2024-03-02T04:45:00;99674.91;;;18.01;46.49
70240;BME280;57629;52.256;10.414;2024-03-02T04:46:01;99675.97;;;18.00;46.51
70240;BME280;57629;52.256;10.414;2024-03-02T04:47:02;99680.22;;;18.01;46.39
70240;BME280;57629;52.256;10.414;2024-03-02T04:48:04;99677.56;;;18.01;46.39
70240;BME280;57629;52.256;10.414;2024-03-02T04:49:05;99678.41;;;18.01;46.62
70240;BME280;57629;52.256;10.414;2024-03-02T04:50:07;99679.19;;;18.02;46.51
70240;BME280;57629;52.256;10.414;2024-03-02T04:51:09;99682.09;;;18.00;46.25
70240;BME280;57629;52.256;10.414;2024-03-02T04:52:10;99690.84;;;18.01;46.39
70240;BME280;57629;52.256;10.414;2024-03-02T04:53:21;99669.59;;;18.01;46.78
70240;BME280;57629;52.256;10.414;2024-03-02T04:54:23;99689.03;;;18.01;46.58
70240;BME280;57629;52.256;10.414;2024-03-02T04:55:31;99682.09;;;18.00;46.60
70240;BME280;57629;52.256;10.414;2024-03-02T04:56:33;99682.09;;;18.00;46.48
70240;BME280;57629;52.256;10.414;2024-03-02T04:57:37;99684.75;;;18.00;46.51
70240;BME280;57629;52.256;10.414;2024-03-02T04:58:39;99688.19;;;18.01;46.63
70240;BME280;57629;52.256;10.414;2024-03-02T04:59:40;99687.41;;;18.00;46.57
70240;BME280;57629;52.256;10.414;2024-03-02T05:00:41;99692.72;;;18.00;46.54
70240;BME280;57629;52.256;10.414;2024-03-02T05:01:42;99690.06;;;18.00;46.09
70240;BME280;57629;52.256;10.414;2024-03-02T05:02:43;99685.53;;;18.01;46.73
70240;BME280;57629;52.256;10.414;2024-03-02T05:03:44;99686.59;;;18.00;46.33
70240;BME280;57629;52.256;10.414;2024-03-02T05:04:44;99691.94;;;18.00;46.64
70240;BME280;57629;52.256;10.414;2024-03-02T05:05:45;99695.38;;;18.00;46.51
70240;BME280;57629;52.256;10.414;2024-03-02T05:06:46;99694.59;;;18.00;46.55
70240;BME280;57629;52.256;10.414;2024-03-02T05:07:48;99688.19;;;18.01;46.47
70240;BME280;57629;52.256;10.414;2024-03-02T05:08:49;99690.06;;;18.00;46.51
70240;BME280;57629;52.256;10.414;2024-03-02T05:09:50;99685.53;;;18.01;46.54
70240;BME280;57629;52.256;10.414;2024-03-02T05:10:51;99686.59;;;18.00;46.49
70240;BME280;57629;52.256;10.414;2024-03-02T05:11:53;99679.72;;;17.99;46.50
70240;BME280;57629;52.256;10.414;2024-03-02T05:12:54;99686.59;;;18.00;46.55
70240;BME280;57629;52.256;10.414;2024-03-02T05:13:55;99683.94;;;18.00;46.30
70240;BME280;57629;52.256;10.414;2024-03-02T05:14:56;99688.19;;;18.01;46.53
70240;BME280;57629;52.256;10.414;2024-03-02T05:15:57;99685.53;;;18.01;46.67
70240;BME280;57629;52.256;10.414;2024-03-02T05:16:58;99681.28;;;18.00;46.56
70240;BME280;57629;52.256;10.414;2024-03-02T05:17:58;99686.38;;;18.01;46.38
70240;BME280;57629;52.256;10.414;2024-03-02T05:18:59;99687.41;;;18.00;46.42
70240;BME280;57629;52.256;10.414;2024-03-02T05:20:00;99685.81;;;17.99;46.68
70240;BME280;57629;52.256;10.414;2024-03-02T05:21:01;99686.59;;;18.00;46.43
70240;BME280;57629;52.256;10.414;2024-03-02T05:22:02;99684.75;;;18.00;46.56
70240;BME280;57629;52.256;10.414;2024-03-02T05:23:03;99692.16;;;17.98;46.46
70240;BME280;57629;52.256;10.414;2024-03-02T05:24:05;99692.16;;;17.98;46.34
70240;BME280;57629;52.256;10.414;2024-03-02T05:25:07;99693.78;;;17.99;46.51